Aeroporto :
LOGIN :

Iscrizione | Disclaimer

   EN    FR    IT 

 










Sommario :    VFR   VFR Marginale   IFR   IFR Intensivo   IFR Molto Intensivo
Visibilità : 
Base nubi : 
>= 8 km
>= 3000ft
5 / 8 km
1000 / 3000 ft
1500m / 5 km
500 / 1000 ft
800 / 1500m
200 / 500 ft
< 800m
< 200 ft
Simboli :   Temporali  Nebbia  Neve Forte  Precipitazioni Forti  Vento > 20 kt
SIGMETs :   Varie  Temporali  Ghiacco  Turbolenza  Onda orograficha  Ceneri Vulcaniche






- Altitudine del aeroporto : 392 ft
- Codice IATA : CDG


LFPG - Paris-Aeroport Charles De Gaulle

ULTIMO METAR :
  • 181330Z 04006KT 350V070 CAVOK 26/15 Q1020 NOSIG

METARs OBSOLETI :
  • 181300Z 09006KT 040V150 CAVOK 26/14 Q1020 NOSIG
  • 181230Z 08005KT 020V130 CAVOK 26/15 Q1020 NOSIG
  • 181200Z 10004KT 040V160 CAVOK 25/15 Q1021 NOSIG
  • 181130Z 03006KT 330V070 CAVOK 24/16 Q1021 NOSIG
  • 181100Z 05006KT 360V090 CAVOK 24/15 Q1021 NOSIG

TAF TAF LFPG
Valido dal 18 a 12 ore il 19 a 18 ore UTC


181100Z 1812/1918 02008KT CAVOK TX29/1815Z TN19/1905Z
PROB30
TEMPO 1822/1904 4000 -TSRA SCT040CB
BECMG 1906/1908 28010KT
PROB40
TEMPO 1910/1912 28015G25KT 4000 -TSRA SCT035CB
ATIS : +33 1 48 62 10 92



MetMap, La meteo Aeronautica in un colpo d'occhio ! - Copyright ORBIFLY Dicembre 2007 - Disclaimer

ORBIFLY MET'MAP TEAM :

Programmazione e sviluppo : Alexandra Zaïnal
Concezione : Baudouin d'Aumeries
Supporto tecnico e logistico : Manuel Goepfert
Aiuto : Marc-Olivier Méhu
Aiuto per la traduzione : Arnaldo La Scala

Contatto : metmap@orbifly.com




FONTI E CREDITI :

   NOAA